Columbia Regional Airport
KCOU : now visible

Airfield :











YOU CAN JOIN US ON...

 
LOGIN :

Register | Disclaimer

   EN    FR    IT 

 









Legend :    VFR   Marginal VFR   IFR   Intensive IFR   Very Intensive IFR
Visi :
Ceiling :
>= 8 km
>= 3000ft
5 to 8 km
1000 to 3000 ft
1500m to 5 km
500 to 1000 ft
800 to 1500m
200 to 500 ft
< 800m
< 200 ft
Symbols :   Thunderstorms  Fog  Heavy snow  Heavy precipitations  Wind > 20 kt






- Airport Elevation : 889 ft
- IATA code : COU


KCOU - Columbia Regional

CURRENT METAR :
  • 161254Z 03007KT 7SM BKN008 OVC021 M04/M07 A3010 RMK AO2 SLP203 T10441067

EXPIRED METARs :
  • 161242Z AUTO 02010KT 7SM BKN008 OVC021 M04/M07 A3010 RMK AO2 T10441067
  • 161154Z AUTO 02004KT 8SM FEW008 OVC021 M04/M06 A3012 RMK AO2 SLP211 60000 70024 T10441061 11044 21056 53009 $
  • 161054Z AUTO 01006KT 8SM OVC020 M04/M06 A3012 RMK AO2 SLP209 T10441061 $

TAF KCOU
Valid from the 16 at 12:00 until the 17 at 12:00 UTC


161127Z 1612/1712 02008KT 5SM -SN BR OVC007
FM161500 01010KT 2SM -SN BR OVC007
FM170200 34012KT 5SM -SN OVC010
FM170500 34008KT P6SM OVC060



MET'MAP, your aeronautical weather chart ! - Copyright ORBIFLY December 2007 - Disclaimer

ORBIFLY MET'MAP TEAM :

Programming & Development : Alexandra Zaïnal
Concept & original design : Baudouin d'Aumeries
Assistance for programming : Marc-Olivier Méhu
Technical & hardware support : Manuel Goepfert

Contact : metmap@orbifly.com




SOURCES & CREDITS :

   NOAA       Earth
Advisory